Time;durP1;ratioP1;P1;durP2;ratioP2;P2;SDS_P1;SDS_P2;PMS_P1;PMS_P2;Temp;Humidity;BMP_temperature;BMP_pressure;BME280_temperature;BME280_humidity;BME280_pressure;Samples;Min_cycle;Max_cycle;Signal;HPM_P1;HPM_P2
2022/12/23 00:01:32;;;;;;;8.65;3.30;;;10.90;99.90;;;;;;4146444;28;20457;-70
2022/12/23 00:03:34;;;;;;;11.00;3.70;;;10.90;99.90;;;;;;4150967;28;20499;-69
2022/12/23 00:05:36;;;;;;;9.13;3.28;;;10.90;99.90;;;;;;4149929;28;20053;-70
2022/12/23 00:07:37;;;;;;;10.23;3.10;;;10.90;99.90;;;;;;4139327;28;20041;-69
2022/12/23 00:09:37;;;;;;;9.90;2.95;;;10.90;99.90;;;;;;4143234;28;20026;-70
2022/12/23 00:15:04;;;;;;;8.52;2.90;;;10.90;99.90;;;;;;4140164;28;20073;-70
2022/12/23 00:16:37;;;;;;;11.05;3.08;;;10.90;99.90;;;;;;4125658;28;20434;-69
2022/12/23 00:18:39;;;;;;;8.13;3.10;;;10.90;99.90;;;;;;4129112;28;20452;-69
2022/12/23 00:20:39;;;;;;;10.75;3.45;;;10.90;99.90;;;;;;4127108;28;20042;-69
2022/12/23 00:24:59;;;;;;;10.40;3.20;;;10.90;99.90;;;;;;4135280;28;20450;-69
2022/12/23 00:27:00;;;;;;;10.68;3.33;;;10.90;99.90;;;;;;4143305;28;20030;-69
2022/12/23 00:29:00;;;;;;;11.07;3.08;;;10.90;99.90;;;;;;4132948;28;20049;-69
2022/12/23 00:31:03;;;;;;;11.23;3.17;;;10.90;99.90;;;;;;4132792;28;20041;-70
2022/12/23 00:33:04;;;;;;;;;;;10.90;99.90;;;;;;4150631;28;20034;-69
2022/12/23 00:35:05;;;;;;;9.88;3.22;;;11.00;99.90;;;;;;4150593;28;20286;-70
2022/12/23 00:37:05;;;;;;;12.35;3.58;;;10.90;99.90;;;;;;4144650;28;20080;-69
2022/12/23 00:44:06;;;;;;;10.50;3.38;;;10.90;99.90;;;;;;4128583;28;20438;-69
2022/12/23 00:46:06;;;;;;;7.55;2.88;;;11.00;99.90;;;;;;4137309;28;20068;-69
2022/12/23 00:50:27;;;;;;;6.95;2.65;;;10.90;99.90;;;;;;4144565;28;20046;-69
2022/12/23 00:52:27;;;;;;;10.68;3.38;;;10.90;99.90;;;;;;4145964;28;20030;-69
2022/12/23 00:54:28;;;;;;;14.10;3.42;;;10.90;99.90;;;;;;4146675;28;20037;-69
2022/12/23 00:56:29;;;;;;;10.93;3.50;;;10.90;99.90;;;;;;4140566;28;20034;-69
2022/12/23 00:58:30;;;;;;;8.23;2.95;;;10.90;99.90;;;;;;4135020;28;20057;-70
2022/12/23 01:07:29;;;;;;;8.93;3.20;;;10.90;99.90;;;;;;4138643;28;20040;-70
2022/12/23 01:09:30;;;;;;;15.63;3.88;;;10.90;99.90;;;;;;4145462;28;20069;-69
2022/12/23 01:11:30;;;;;;;9.43;3.30;;;10.90;99.90;;;;;;4145172;28;20050;-69
2022/12/23 01:13:31;;;;;;;9.23;3.35;;;10.90;99.90;;;;;;4146305;28;20100;-69
2022/12/23 01:15:32;;;;;;;12.90;3.83;;;10.90;99.90;;;;;;4136642;28;20444;-69
2022/12/23 01:17:33;;;;;;;9.38;3.78;;;11.00;99.90;;;;;;4145617;28;20037;-69
2022/12/23 01:19:34;;;;;;;11.43;4.00;;;10.90;99.90;;;;;;4146182;28;20605;-70
2022/12/23 01:21:34;;;;;;;12.10;3.55;;;10.90;99.90;;;;;;4144326;28;20085;-69
2022/12/23 01:23:36;;;;;;;9.38;3.40;;;10.90;99.90;;;;;;4144630;28;20037;-69
2022/12/23 01:25:36;;;;;;;10.18;3.50;;;10.90;99.90;;;;;;4142851;28;20038;-70
2022/12/23 01:27:37;;;;;;;10.68;4.15;;;10.90;99.90;;;;;;4146137;28;20033;-69
2022/12/23 01:29:38;;;;;;;12.00;4.13;;;10.90;99.90;;;;;;4144954;28;20046;-70
2022/12/23 01:31:38;;;;;;;11.82;3.83;;;10.90;99.90;;;;;;4148280;28;20025;-69
2022/12/23 01:33:39;;;;;;;12.98;3.88;;;10.90;99.90;;;;;;4145469;28;20046;-69
2022/12/23 01:35:39;;;;;;;12.82;3.80;;;10.90;99.90;;;;;;4143650;28;20042;-69
2022/12/23 01:37:40;;;;;;;10.63;3.85;;;10.90;99.90;;;;;;4142812;28;20128;-69
2022/12/23 01:39:40;;;;;;;15.68;4.78;;;10.90;99.90;;;;;;4145928;28;20113;-69
2022/12/23 01:44:00;;;;;;;10.02;3.70;;;10.90;99.90;;;;;;4131339;28;20061;-69
2022/12/23 01:46:01;;;;;;;7.75;4.15;;;10.90;99.90;;;;;;4146633;28;20049;-69
2022/12/23 01:48:10;;;;;;;12.52;4.30;;;10.90;99.90;;;;;;4145388;28;20042;-69
2022/12/23 01:50:29;;;;;;;10.20;4.18;;;10.90;99.90;;;;;;4144624;28;20496;-71
2022/12/23 01:52:32;;;;;;;10.40;3.90;;;10.90;99.90;;;;;;4145679;28;20460;-69
2022/12/23 01:54:33;;;;;;;9.95;4.22;;;10.90;99.90;;;;;;4145249;28;22735;-70
2022/12/23 01:56:37;;;;;;;13.00;4.18;;;10.90;99.90;;;;;;4144166;28;20029;-69
2022/12/23 01:58:43;;;;;;;10.23;4.30;;;10.90;99.90;;;;;;4143713;28;20068;-69
2022/12/23 02:05:23;;;;;;;8.27;3.95;;;10.90;99.90;;;;;;4144221;28;20038;-69
2022/12/23 02:09:42;;;;;;;7.82;3.47;;;10.90;99.90;;;;;;4142126;28;20378;-69
2022/12/23 02:12:01;;;;;;;10.68;4.10;;;10.90;99.90;;;;;;4130834;28;20137;-69
2022/12/23 02:16:39;;;;;;;10.85;4.25;;;10.90;99.90;;;;;;4137875;28;20037;-68
2022/12/23 02:19:25;;;;;;;12.85;4.97;;;10.90;99.90;;;;;;4140781;28;20052;-69
2022/12/23 02:21:44;;;;;;;12.57;5.50;;;11.00;99.90;;;;;;4143660;28;20499;-69
2022/12/23 02:23:57;;;;;;;10.15;5.18;;;10.90;99.90;;;;;;4139478;28;20088;-69
2022/12/23 02:26:25;;;;;;;13.70;5.35;;;10.90;99.90;;;;;;4144312;28;20060;-69
2022/12/23 02:28:37;;;;;;;9.02;4.82;;;10.90;99.90;;;;;;4140328;28;20036;-69
2022/12/23 02:30:47;;;;;;;6.33;4.30;;;10.90;99.90;;;;;;4139510;28;20448;-68
2022/12/23 02:33:23;;;;;;;11.02;5.00;;;11.00;99.90;;;;;;4130665;28;20396;-69
2022/12/23 02:36:05;;;;;;;14.70;5.18;;;11.00;99.90;;;;;;4144433;28;20040;-69
2022/12/23 02:38:12;;;;;;;12.20;5.18;;;11.00;99.90;;;;;;4122985;28;20030;-69
2022/12/23 02:40:37;;;;;;;9.85;5.00;;;10.90;99.90;;;;;;4142725;28;20374;-69
2022/12/23 02:42:46;;;;;;;11.60;4.95;;;10.90;99.90;;;;;;4141224;28;20053;-69
2022/12/23 02:44:58;;;;;;;15.82;6.00;;;11.00;99.90;;;;;;4144374;28;20029;-69
2022/12/23 02:47:09;;;;;;;10.90;4.82;;;10.90;99.90;;;;;;4143301;28;20481;-69
2022/12/23 02:49:19;;;;;;;9.90;5.00;;;10.90;99.90;;;;;;4138059;28;20512;-69
2022/12/23 02:51:27;;;;;;;9.20;5.35;;;10.90;99.90;;;;;;4144161;28;20042;-69
2022/12/23 02:53:39;;;;;;;9.75;5.63;;;10.90;99.90;;;;;;4132067;28;20030;-69
2022/12/23 02:55:42;;;;;;;9.10;5.13;;;10.90;99.90;;;;;;4136409;28;20036;-69
2022/12/23 02:57:46;;;;;;;10.55;5.35;;;10.90;99.90;;;;;;4144663;28;20026;-69
2022/12/23 02:59:50;;;;;;;13.75;5.75;;;10.90;99.90;;;;;;4146532;28;20511;-69
2022/12/23 03:01:52;;;;;;;12.32;6.63;;;10.90;99.90;;;;;;4144328;28;20049;-69
2022/12/23 03:03:53;;;;;;;12.85;6.57;;;10.90;99.90;;;;;;4145125;28;20033;-69
2022/12/23 03:05:54;;;;;;;13.18;6.53;;;10.90;99.90;;;;;;4143456;28;20026;-69
2022/12/23 03:07:58;;;;;;;7.63;5.68;;;10.90;99.90;;;;;;4133999;28;20053;-69
2022/12/23 03:10:25;;;;;;;12.18;6.65;;;10.90;99.90;;;;;;4132522;28;20037;-69
2022/12/23 03:12:54;;;;;;;11.60;5.90;;;10.90;99.90;;;;;;4146890;28;20064;-69
2022/12/23 03:15:12;;;;;;;9.13;5.78;;;10.90;99.90;;;;;;4138918;28;20060;-69
2022/12/23 03:17:21;;;;;;;13.95;7.35;;;10.90;99.90;;;;;;4144874;28;20120;-69
2022/12/23 03:19:30;;;;;;;16.25;6.75;;;10.90;99.90;;;;;;4143828;28;20058;-69
2022/12/23 03:21:34;;;;;;;13.40;6.50;;;10.90;99.90;;;;;;4143977;28;20061;-69
2022/12/23 03:23:41;;;;;;;10.32;5.63;;;10.90;99.90;;;;;;4143873;28;20049;-69
2022/12/23 03:25:56;;;;;;;13.45;6.50;;;10.90;99.90;;;;;;4143516;28;20807;-69
2022/12/23 03:28:16;;;;;;;14.20;6.70;;;10.90;99.90;;;;;;4147619;28;20104;-69
2022/12/23 03:30:19;;;;;;;12.68;6.93;;;10.90;99.90;;;;;;4138554;28;20392;-69
2022/12/23 03:32:22;;;;;;;9.73;5.97;;;10.90;99.90;;;;;;4129038;28;20038;-70
2022/12/23 03:34:28;;;;;;;11.25;5.90;;;10.90;99.90;;;;;;4131332;28;20121;-69
2022/12/23 03:36:40;;;;;;;11.25;6.40;;;10.90;99.90;;;;;;4141727;28;20037;-69
2022/12/23 03:38:43;;;;;;;10.85;5.90;;;11.00;99.90;;;;;;4143771;28;20038;-69
2022/12/23 03:40:52;;;;;;;12.43;6.55;;;11.00;99.90;;;;;;4138730;28;20121;-70
2022/12/23 03:43:06;;;;;;;9.80;5.82;;;11.00;99.90;;;;;;4144832;28;20060;-69
2022/12/23 03:45:12;;;;;;;16.38;6.32;;;11.00;99.90;;;;;;4145416;28;20080;-71
2022/12/23 03:47:30;;;;;;;12.55;6.50;;;11.00;99.90;;;;;;4144068;28;20030;-69
2022/12/23 03:49:52;;;;;;;11.95;6.32;;;11.00;99.90;;;;;;4143546;28;20042;-69
2022/12/23 03:52:03;;;;;;;11.35;7.05;;;11.00;99.90;;;;;;4142980;28;20087;-69
2022/12/23 03:54:09;;;;;;;10.88;6.00;;;11.00;99.90;;;;;;4141742;28;20038;-69
2022/12/23 03:56:17;;;;;;;9.57;6.15;;;11.00;99.90;;;;;;4142506;28;20100;-68
2022/12/23 03:58:21;;;;;;;16.73;8.45;;;10.90;99.90;;;;;;4142749;28;20041;-69
2022/12/23 04:00:21;;;;;;;13.93;6.47;;;10.90;99.90;;;;;;4142793;28;20049;-69
2022/12/23 04:02:38;;;;;;;13.90;7.15;;;10.90;99.90;;;;;;4143658;28;20034;-69
2022/12/23 04:05:02;;;;;;;12.57;7.57;;;10.90;99.90;;;;;;4141785;28;20034;-69
2022/12/23 04:07:19;;;;;;;14.02;6.85;;;10.90;99.90;;;;;;4142084;28;20446;-68
2022/12/23 04:09:22;;;;;;;11.18;7.10;;;10.90;99.90;;;;;;4143846;28;20030;-69
2022/12/23 04:11:23;;;;;;;14.45;7.70;;;10.90;99.90;;;;;;4142834;28;20041;-69
2022/12/23 04:13:26;;;;;;;11.90;7.18;;;11.00;99.90;;;;;;4145005;28;20045;-69
2022/12/23 04:15:26;;;;;;;;;;;10.90;99.90;;;;;;4146212;28;20121;-69
2022/12/23 04:17:28;;;;;;;14.38;7.70;;;11.00;99.90;;;;;;4130481;28;19910;-69
2022/12/23 04:19:28;;;;;;;13.98;8.13;;;10.90;99.90;;;;;;4140297;28;20476;-69
2022/12/23 04:21:29;;;;;;;12.77;6.97;;;10.90;99.90;;;;;;4141664;28;20037;-69
2022/12/23 04:23:29;;;;;;;7.93;6.15;;;10.90;99.90;;;;;;4143834;28;20030;-69
2022/12/23 04:25:30;;;;;;;11.02;7.25;;;11.00;99.90;;;;;;4142804;28;20037;-69
2022/12/23 04:27:30;;;;;;;9.68;6.75;;;11.00;99.90;;;;;;4143418;28;20037;-69
2022/12/23 04:29:31;;;;;;;14.27;8.25;;;11.00;99.90;;;;;;4143065;28;20029;-69
2022/12/23 04:31:31;;;;;;;15.98;7.97;;;10.90;99.90;;;;;;4140474;28;20030;-69
2022/12/23 04:33:32;;;;;;;12.40;7.18;;;10.90;99.90;;;;;;4144858;28;20109;-69
2022/12/23 04:35:32;;;;;;;7.93;6.18;;;10.90;99.90;;;;;;4149456;28;20033;-69
2022/12/23 04:37:33;;;;;;;10.63;6.53;;;10.90;99.90;;;;;;4143749;28;20061;-70
2022/12/23 04:39:34;;;;;;;9.73;6.45;;;11.00;99.90;;;;;;4145481;28;20034;-69
2022/12/23 04:41:34;;;;;;;12.68;6.30;;;11.00;99.90;;;;;;4146189;28;20388;-68
2022/12/23 04:43:35;;;;;;;12.35;6.50;;;11.00;99.90;;;;;;4145078;28;20376;-69
2022/12/23 04:45:35;;;;;;;11.82;6.30;;;11.00;99.90;;;;;;4144917;28;20552;-69
2022/12/23 04:47:36;;;;;;;7.85;5.90;;;11.00;99.90;;;;;;4147528;28;20034;-69
2022/12/23 04:49:37;;;;;;;7.80;5.78;;;11.00;99.90;;;;;;4145467;28;20041;-69
2022/12/23 04:51:37;;;;;;;9.27;5.90;;;10.90;99.90;;;;;;4145944;28;20044;-69
2022/12/23 04:53:38;;;;;;;12.13;5.85;;;10.90;99.90;;;;;;4146393;28;20037;-68
2022/12/23 04:55:38;;;;;;;9.68;6.20;;;11.00;99.90;;;;;;4145384;28;20030;-69
2022/12/23 04:57:39;;;;;;;12.48;7.22;;;11.00;99.90;;;;;;4147095;28;20116;-69
2022/12/23 04:59:39;;;;;;;12.30;7.05;;;10.90;99.90;;;;;;4146902;28;20038;-69
2022/12/23 05:01:41;;;;;;;11.35;6.57;;;10.90;99.90;;;;;;4144770;28;20030;-69
2022/12/23 05:03:41;;;;;;;7.10;5.85;;;10.90;99.90;;;;;;4144167;28;20417;-69
2022/12/23 05:05:43;;;;;;;9.95;6.75;;;10.90;99.90;;;;;;4143902;28;20026;-69
2022/12/23 05:07:44;;;;;;;10.67;7.60;;;10.90;99.90;;;;;;4142015;28;20118;-69
2022/12/23 05:09:44;;;;;;;8.73;6.15;;;10.90;99.90;;;;;;4145847;28;20113;-69
2022/12/23 05:11:45;;;;;;;10.25;6.70;;;10.90;99.90;;;;;;4143869;28;20045;-69
2022/12/23 05:13:45;;;;;;;10.07;6.75;;;10.90;99.90;;;;;;4150834;28;20079;-69
2022/12/23 05:15:49;;;;;;;13.30;6.32;;;10.90;99.90;;;;;;4136652;28;20552;-69
2022/12/23 05:17:50;;;;;;;10.90;6.80;;;10.80;99.90;;;;;;4147575;28;20044;-69
2022/12/23 05:19:50;;;;;;;8.40;6.13;;;10.90;99.90;;;;;;4142722;28;20492;-69
2022/12/23 05:21:51;;;;;;;8.40;6.20;;;10.90;99.90;;;;;;4152047;28;20439;-69
2022/12/23 05:23:51;;;;;;;12.13;7.30;;;10.90;99.90;;;;;;4153883;28;20037;-69
2022/12/23 05:25:53;;;;;;;13.68;6.95;;;10.90;99.90;;;;;;4145559;28;20447;-69
2022/12/23 05:27:53;;;;;;;9.57;6.25;;;10.80;99.90;;;;;;4145332;28;20755;-69
2022/12/23 05:29:54;;;;;;;10.13;5.78;;;10.80;99.90;;;;;;4148712;28;20045;-69
2022/12/23 05:31:54;;;;;;;7.35;5.82;;;10.90;99.90;;;;;;4149567;28;20069;-69
2022/12/23 05:33:55;;;;;;;9.88;6.53;;;10.90;99.90;;;;;;4155309;28;20033;-69
2022/12/23 05:35:55;;;;;;;8.10;5.57;;;10.90;99.90;;;;;;4150090;28;20068;-69
2022/12/23 05:37:56;;;;;;;8.30;6.13;;;10.90;99.90;;;;;;4151040;28;20481;-69
2022/12/23 05:39:57;;;;;;;11.35;6.22;;;10.90;99.90;;;;;;4144474;28;20049;-69
2022/12/23 05:41:57;;;;;;;7.65;5.70;;;10.90;99.90;;;;;;4144748;28;20044;-69
2022/12/23 05:43:58;;;;;;;8.77;5.82;;;10.90;99.90;;;;;;4147061;28;20112;-69
2022/12/23 05:45:59;;;;;;;10.38;5.85;;;10.90;99.90;;;;;;4152752;28;20033;-69
2022/12/23 05:47:59;;;;;;;6.35;5.13;;;10.90;99.90;;;;;;4146204;28;20034;-69
2022/12/23 05:50:00;;;;;;;8.52;5.80;;;10.80;99.90;;;;;;4154484;28;20439;-69
2022/12/23 05:52:01;;;;;;;11.80;6.78;;;10.90;99.90;;;;;;4144655;28;20042;-70
2022/12/23 05:54:01;;;;;;;8.20;6.05;;;10.80;99.90;;;;;;4144879;28;20496;-69
2022/12/23 05:56:04;;;;;;;10.75;7.75;;;10.80;99.90;;;;;;4144519;28;20026;-69
2022/12/23 05:58:04;;;;;;;10.48;6.80;;;10.80;99.90;;;;;;4144074;28;20092;-69
2022/12/23 06:00:05;;;;;;;11.55;7.28;;;10.80;99.90;;;;;;4143178;28;20041;-69
2022/12/23 06:02:06;;;;;;;10.68;7.32;;;10.80;99.90;;;;;;4140111;28;20113;-69
2022/12/23 06:04:07;;;;;;;15.32;8.50;;;10.80;99.90;;;;;;4146166;28;20034;-69
2022/12/23 06:06:07;;;;;;;13.25;8.13;;;10.80;99.90;;;;;;4144670;28;20038;-69
2022/12/23 06:08:08;;;;;;;10.13;7.00;;;10.80;99.90;;;;;;4144755;28;20037;-69
2022/12/23 06:10:10;;;;;;;12.10;7.28;;;10.80;99.90;;;;;;4138534;28;20036;-71
2022/12/23 06:12:11;;;;;;;10.68;7.47;;;10.80;99.90;;;;;;4138949;28;20133;-69
2022/12/23 06:14:11;;;;;;;13.93;8.77;;;10.80;99.90;;;;;;4153121;28;20038;-69
2022/12/23 06:16:12;;;;;;;11.85;8.40;;;10.80;99.90;;;;;;4153767;28;20102;-69
2022/12/23 06:18:12;;;;;;;13.55;8.35;;;10.80;99.90;;;;;;4155112;28;20507;-69
2022/12/23 06:20:13;;;;;;;17.38;9.45;;;10.80;99.90;;;;;;4153985;28;20610;-70
2022/12/23 06:22:14;;;;;;;12.60;8.60;;;10.80;99.90;;;;;;4142662;28;20060;-69
2022/12/23 06:24:15;;;;;;;10.82;8.48;;;10.80;99.90;;;;;;4146194;28;20511;-69
2022/12/23 06:26:15;;;;;;;13.77;8.65;;;10.80;99.90;;;;;;4145025;28;20107;-69
2022/12/23 06:28:16;;;;;;;11.85;8.18;;;10.80;99.90;;;;;;4148129;28;20040;-69
2022/12/23 06:30:16;;;;;;;12.82;8.93;;;10.80;99.90;;;;;;4139508;28;20108;-69
2022/12/23 06:32:17;;;;;;;12.85;9.25;;;10.80;99.90;;;;;;4144992;28;20041;-69
2022/12/23 06:34:18;;;;;;;13.73;9.13;;;10.80;99.90;;;;;;4145090;28;20077;-68
2022/12/23 06:36:19;;;;;;;12.82;8.30;;;10.90;99.90;;;;;;4149889;28;20038;-69
2022/12/23 06:38:19;;;;;;;12.65;8.95;;;10.90;99.90;;;;;;4144692;28;20121;-69
2022/12/23 06:40:20;;;;;;;13.13;8.23;;;10.90;99.90;;;;;;4143080;28;20038;-70
2022/12/23 06:42:21;;;;;;;13.32;8.48;;;10.90;99.90;;;;;;4157198;28;20038;-70
2022/12/23 06:44:21;;;;;;;11.75;8.70;;;10.90;99.90;;;;;;4155249;28;20069;-70
2022/12/23 06:46:22;;;;;;;14.05;8.65;;;10.90;99.90;;;;;;4145172;28;20088;-69
2022/12/23 06:48:22;;;;;;;13.75;9.23;;;10.90;99.90;;;;;;4145404;28;20494;-69
2022/12/23 06:50:23;;;;;;;10.65;7.72;;;10.90;99.90;;;;;;4150904;28;20805;-69
2022/12/23 06:52:23;;;;;;;13.43;7.68;;;10.90;99.90;;;;;;4144169;28;20033;-69
2022/12/23 06:54:24;;;;;;;12.50;8.10;;;10.90;99.90;;;;;;4145678;28;20188;-70
2022/12/23 06:56:25;;;;;;;14.70;8.52;;;10.90;99.90;;;;;;4143826;28;20112;-69
2022/12/23 06:58:25;;;;;;;14.35;8.65;;;10.90;99.90;;;;;;4154598;28;20038;-70
2022/12/23 07:00:26;;;;;;;14.18;8.23;;;10.90;99.90;;;;;;4139764;28;20129;-69
2022/12/23 07:02:27;;;;;;;14.23;9.43;;;10.90;99.90;;;;;;4142115;28;20492;-70
2022/12/23 07:04:27;;;;;;;10.27;7.85;;;10.90;99.90;;;;;;4139931;28;20416;-70
2022/12/23 07:06:28;;;;;;;12.23;9.18;;;10.90;99.90;;;;;;4140723;28;20033;-69
2022/12/23 07:08:28;;;;;;;14.48;9.45;;;10.90;99.90;;;;;;4139260;28;20040;-70
2022/12/23 07:10:29;;;;;;;15.15;9.88;;;10.90;99.90;;;;;;4141883;28;20042;-70
2022/12/23 07:12:29;;;;;;;14.23;9.30;;;10.90;99.90;;;;;;4140983;28;20042;-72
2022/12/23 07:14:30;;;;;;;14.32;8.73;;;10.80;99.90;;;;;;4138458;28;20049;-71
2022/12/23 07:16:31;;;;;;;13.35;9.10;;;10.80;99.90;;;;;;4139860;28;20050;-72
2022/12/23 07:18:31;;;;;;;15.57;9.40;;;10.90;99.90;;;;;;4139561;28;20049;-72
2022/12/23 07:20:32;;;;;;;14.77;9.73;;;10.90;99.90;;;;;;4139146;28;20049;-72
2022/12/23 07:22:32;;;;;;;13.75;9.02;;;10.80;99.90;;;;;;4138410;28;20037;-72
2022/12/23 07:24:33;;;;;;;16.83;9.50;;;10.90;99.90;;;;;;4138625;28;20129;-72
2022/12/23 07:26:33;;;;;;;14.32;9.80;;;10.80;99.90;;;;;;4139309;28;20042;-72
2022/12/23 07:28:34;;;;;;;15.15;9.35;;;10.80;99.90;;;;;;4140196;28;20034;-72
2022/12/23 07:30:35;;;;;;;17.40;9.23;;;10.80;99.90;;;;;;4140393;28;20066;-72
2022/12/23 07:32:36;;;;;;;12.40;7.95;;;10.80;99.90;;;;;;4138755;28;20622;-72
2022/12/23 07:34:36;;;;;;;14.13;8.68;;;10.80;99.90;;;;;;4140261;28;20065;-71
2022/12/23 07:36:37;;;;;;;12.55;9.38;;;10.80;99.90;;;;;;4141064;28;20034;-72
2022/12/23 07:38:37;;;;;;;14.48;8.32;;;10.80;99.90;;;;;;4141323;28;20042;-71
2022/12/23 07:40:38;;;;;;;13.07;8.52;;;10.80;99.90;;;;;;4140674;28;20049;-71
2022/12/23 07:42:38;;;;;;;15.25;9.23;;;10.80;99.90;;;;;;4141266;28;20449;-72
2022/12/23 07:44:39;;;;;;;15.60;9.43;;;10.80;99.90;;;;;;4141331;28;20080;-72
2022/12/23 07:46:39;;;;;;;19.90;9.77;;;10.80;99.90;;;;;;4138908;28;20041;-72
2022/12/23 07:48:40;;;;;;;14.65;8.52;;;10.80;99.90;;;;;;4139097;28;20069;-73
2022/12/23 07:50:41;;;;;;;20.02;10.45;;;10.80;99.90;;;;;;4140913;28;20042;-72
2022/12/23 07:52:42;;;;;;;11.70;8.13;;;10.80;99.90;;;;;;4141884;28;20041;-73
2022/12/23 07:54:42;;;;;;;12.82;8.35;;;10.80;99.90;;;;;;4140571;28;20065;-72
2022/12/23 07:56:43;;;;;;;14.90;8.85;;;10.80;99.90;;;;;;4138005;28;20037;-72
2022/12/23 07:58:48;;;;;;;12.43;8.23;;;10.80;99.90;;;;;;4140295;28;20038;-72
2022/12/23 08:00:48;;;;;;;12.77;8.18;;;10.80;99.90;;;;;;4137515;28;20072;-72
2022/12/23 08:02:49;;;;;;;11.73;7.70;;;10.80;99.90;;;;;;4141988;28;20030;-73
2022/12/23 08:04:49;;;;;;;14.85;8.60;;;10.90;99.90;;;;;;4135488;28;20081;-70
2022/12/23 08:06:50;;;;;;;14.63;8.70;;;10.80;99.90;;;;;;4137883;28;20472;-72
2022/12/23 08:08:51;;;;;;;11.50;7.45;;;10.80;99.90;;;;;;4140656;28;20133;-72
2022/12/23 08:10:57;;;;;;;12.70;7.45;;;10.80;99.90;;;;;;4122906;28;20489;-72
2022/12/23 08:13:01;;;;;;;13.18;8.57;;;10.80;99.90;;;;;;4134672;28;20421;-73
2022/12/23 08:15:02;;;;;;;12.63;8.18;;;10.80;99.90;;;;;;4135527;28;20038;-73
2022/12/23 08:17:02;;;;;;;13.27;7.95;;;10.80;99.90;;;;;;4139149;28;20038;-73
2022/12/23 08:19:03;;;;;;;11.50;8.32;;;10.80;99.90;;;;;;4139469;28;20132;-73
2022/12/23 08:21:15;;;;;;;16.88;8.55;;;10.80;99.90;;;;;;4138173;28;20038;-73
2022/12/23 08:23:16;;;;;;;12.68;8.13;;;10.80;99.90;;;;;;4136320;28;20137;-73
2022/12/23 08:25:16;;;;;;;11.43;7.45;;;10.80;99.90;;;;;;4137897;28;20030;-73
2022/12/23 08:27:17;;;;;;;11.35;7.97;;;10.80;99.90;;;;;;4139031;28;20030;-73
2022/12/23 08:29:17;;;;;;;13.55;7.25;;;10.80;99.90;;;;;;4130714;28;20351;-73
2022/12/23 08:31:27;;;;;;;13.63;7.72;;;10.80;99.90;;;;;;4138677;28;20105;-73
2022/12/23 08:33:28;;;;;;;12.32;7.90;;;10.80;99.90;;;;;;4136856;28;20100;-73
2022/12/23 08:35:29;;;;;;;17.05;7.38;;;10.80;99.90;;;;;;4136552;28;20038;-73
2022/12/23 08:37:29;;;;;;;16.45;8.30;;;10.80;99.90;;;;;;4127744;28;20042;-73
2022/12/23 08:39:30;;;;;;;14.05;8.15;;;10.80;99.90;;;;;;4136067;28;20042;-73
2022/12/23 08:41:35;;;;;;;8.82;6.40;;;10.80;99.90;;;;;;4165850;28;20518;-73
2022/12/23 08:43:36;;;;;;;15.63;7.95;;;10.80;99.90;;;;;;4137254;28;20303;-72
2022/12/23 08:45:37;;;;;;;11.15;7.28;;;10.80;99.90;;;;;;4132199;28;20120;-73
2022/12/23 08:47:38;;;;;;;14.02;7.78;;;10.80;99.90;;;;;;4142687;28;20042;-72
2022/12/23 08:49:38;;;;;;;11.88;7.68;;;10.80;99.90;;;;;;4130671;28;20066;-72
2022/12/23 08:51:39;;;;;;;12.57;7.68;;;10.90;99.90;;;;;;4127207;28;20034;-72
2022/12/23 08:53:40;;;;;;;18.13;9.75;;;10.80;99.90;;;;;;4132279;28;20060;-73
2022/12/23 08:55:43;;;;;;;13.98;7.75;;;10.80;99.90;;;;;;4140140;28;20484;-72
2022/12/23 08:57:44;;;;;;;13.30;7.55;;;10.80;99.90;;;;;;4140732;28;20042;-73
2022/12/23 08:59:45;;;;;;;14.27;7.70;;;10.80;99.90;;;;;;4142001;28;20053;-73
2022/12/23 09:01:46;;;;;;;11.33;7.03;;;10.90;99.90;;;;;;4156337;28;20583;-72
2022/12/23 09:03:47;;;;;;;12.82;8.07;;;10.90;99.90;;;;;;4143809;28;20477;-74
2022/12/23 09:05:48;;;;;;;12.60;7.47;;;10.90;99.90;;;;;;4142678;28;20048;-73
2022/12/23 09:07:48;;;;;;;13.80;7.68;;;10.90;99.90;;;;;;4142039;28;20053;-73
2022/12/23 09:09:49;;;;;;;13.90;7.40;;;10.90;99.90;;;;;;4143547;28;20091;-73
2022/12/23 09:11:50;;;;;;;9.95;7.10;;;10.90;99.90;;;;;;4140200;28;20038;-73
2022/12/23 09:13:50;;;;;;;11.77;7.00;;;10.90;99.90;;;;;;4138625;28;20041;-73
2022/12/23 09:15:51;;;;;;;13.25;8.32;;;10.90;99.90;;;;;;4139057;28;20045;-72
2022/12/23 09:17:52;;;;;;;15.38;8.68;;;10.90;99.90;;;;;;4142864;28;20084;-72
2022/12/23 09:19:52;;;;;;;14.73;7.75;;;10.90;99.90;;;;;;4133771;28;20042;-72
2022/12/23 09:21:53;;;;;;;10.63;7.53;;;10.90;99.90;;;;;;4142766;28;20026;-73
2022/12/23 09:23:54;;;;;;;13.57;8.48;;;10.90;99.90;;;;;;4142903;28;20533;-73
2022/12/23 09:25:54;;;;;;;12.88;7.85;;;10.90;99.90;;;;;;4137683;28;20087;-73
2022/12/23 09:27:55;;;;;;;15.50;8.27;;;10.90;99.90;;;;;;4142042;28;20038;-73
2022/12/23 09:29:55;;;;;;;11.85;7.18;;;10.90;99.90;;;;;;4139996;28;20045;-73
2022/12/23 09:31:56;;;;;;;14.07;7.40;;;10.90;99.90;;;;;;4141992;28;20049;-72
2022/12/23 09:33:56;;;;;;;15.18;8.57;;;10.90;99.90;;;;;;4140009;28;20088;-73
2022/12/23 09:36:01;;;;;;;12.52;7.55;;;11.00;99.90;;;;;;4141292;28;20520;-73
2022/12/23 09:38:01;;;;;;;14.48;8.05;;;11.00;99.90;;;;;;4143351;28;20041;-73
2022/12/23 09:40:03;;;;;;;12.30;7.95;;;11.00;99.90;;;;;;4140864;28;20037;-72
2022/12/23 09:42:26;;;;;;;12.43;7.75;;;11.00;99.90;;;;;;4141683;28;20172;-73
2022/12/23 09:44:33;;;;;;;12.88;7.53;;;10.90;99.90;;;;;;4141434;28;20034;-73
2022/12/23 09:46:41;;;;;;;14.98;7.88;;;10.90;99.90;;;;;;4133934;28;20049;-73
2022/12/23 09:48:47;;;;;;;14.73;7.35;;;10.90;99.90;;;;;;4138271;28;20034;-73
2022/12/23 09:50:48;;;;;;;12.48;7.43;;;10.90;99.90;;;;;;4141963;28;20456;-73
2022/12/23 09:53:10;;;;;;;12.55;7.05;;;10.90;99.90;;;;;;4143195;28;20030;-73
2022/12/23 09:55:11;;;;;;;15.02;6.90;;;11.00;99.90;;;;;;4137525;28;20030;-73
2022/12/23 09:57:35;;;;;;;9.95;7.43;;;11.00;99.90;;;;;;4141786;28;20496;-73
2022/12/23 09:59:46;;;;;;;;;;;10.90;99.90;;;;;;4140400;28;20149;-72
2022/12/23 10:02:22;;;;;;;10.63;6.75;;;11.00;99.90;;;;;;4136990;28;20316;-73
2022/12/23 10:04:31;;;;;;;10.57;6.18;;;11.00;99.90;;;;;;4136866;28;20038;-73
2022/12/23 10:06:33;;;;;;;12.27;6.70;;;11.00;99.90;;;;;;4136339;28;20043;-73
2022/12/23 10:08:40;;;;;;;10.20;6.23;;;11.00;99.90;;;;;;4142348;28;20508;-73
2022/12/23 10:10:51;;;;;;;10.15;6.13;;;11.00;99.90;;;;;;4139424;28;20273;-73
2022/12/23 10:12:54;;;;;;;10.77;6.22;;;10.90;99.90;;;;;;4128622;28;20046;-73
2022/12/23 10:14:57;;;;;;;11.80;6.10;;;10.90;99.90;;;;;;4133817;28;20044;-73
2022/12/23 10:17:03;;;;;;;10.88;6.30;;;11.00;99.90;;;;;;4132238;28;21022;-73
2022/12/23 10:19:40;;;;;;;10.15;5.68;;;11.00;99.90;;;;;;4127713;28;20046;-72
2022/12/23 10:21:49;;;;;;;8.10;5.28;;;11.00;99.90;;;;;;4146892;28;20088;-71
2022/12/23 10:23:53;;;;;;;11.45;6.63;;;11.00;99.90;;;;;;4132784;28;20034;-72
2022/12/23 10:25:54;;;;;;;12.40;5.82;;;11.00;99.90;;;;;;4128135;28;20494;-71
2022/12/23 10:27:54;;;;;;;11.18;5.93;;;11.00;99.90;;;;;;4134664;28;20396;-72
2022/12/23 10:30:06;;;;;;;11.88;6.53;;;11.10;99.90;;;;;;4130092;28;20027;-72
2022/12/23 10:32:27;;;;;;;13.48;6.05;;;11.00;99.90;;;;;;4133293;28;20026;-72
2022/12/23 10:34:51;;;;;;;11.20;6.82;;;11.00;99.90;;;;;;4138195;28;20038;-73
2022/12/23 10:37:05;;;;;;;11.75;6.50;;;11.00;99.90;;;;;;4138611;28;20026;-73
2022/12/23 10:39:27;;;;;;;10.32;5.78;;;11.00;99.90;;;;;;4139655;28;20037;-72
2022/12/23 10:41:51;;;;;;;7.75;6.03;;;11.00;99.90;;;;;;4139449;28;20483;-72
2022/12/23 10:43:57;;;;;;;14.60;7.15;;;11.00;99.90;;;;;;4137581;28;20022;-72
2022/12/23 10:46:36;;;;;;;14.40;6.97;;;11.00;99.90;;;;;;4130083;28;20535;-72
2022/12/23 10:49:16;;;;;;;11.90;6.18;;;11.00;99.90;;;;;;4135898;28;20030;-72
2022/12/23 10:51:21;;;;;;;11.80;6.40;;;11.00;99.90;;;;;;4131861;28;20069;-72
2022/12/23 10:53:39;;;;;;;10.68;5.88;;;11.00;99.90;;;;;;4134027;28;20034;-72
2022/12/23 10:55:39;;;;;;;9.68;5.75;;;11.00;99.90;;;;;;4134571;28;20026;-71
2022/12/23 10:57:40;;;;;;;11.40;6.38;;;11.00;99.90;;;;;;4141813;28;20113;-72
2022/12/23 10:59:41;;;;;;;11.60;6.75;;;11.00;99.90;;;;;;4140240;28;20116;-71
2022/12/23 11:01:46;;;;;;;11.82;6.90;;;11.00;99.90;;;;;;4139961;28;20030;-72
2022/12/23 11:03:56;;;;;;;10.82;6.72;;;10.90;99.90;;;;;;4140573;28;20123;-72
2022/12/23 11:05:58;;;;;;;12.20;6.18;;;11.00;99.90;;;;;;4136552;28;20034;-72
2022/12/23 11:07:59;;;;;;;14.10;6.80;;;10.90;99.90;;;;;;4131500;28;20042;-72
2022/12/23 11:10:05;;;;;;;11.73;6.97;;;11.00;99.90;;;;;;4132117;28;20265;-71
2022/12/23 11:12:08;;;;;;;13.30;6.43;;;11.00;99.90;;;;;;4133686;28;20050;-72
2022/12/23 11:14:38;;;;;;;14.27;7.05;;;11.00;99.90;;;;;;4131936;28;20149;-73